Flight Track Log - Related Links

Times and Time Zones

All times are in EDT time to prevent confusion due to time zone crossing. See the KBA204 flight status page for this flight to view local times or setup timezone preferences in your user account.

Time Position Orientation Groundspeed Altitude Reporting Facility
EDT Latitude Longitude Course Direction KTS MPH feet Rate Location/Type
Thu 02:47:53 AM 62.4667 -114.5333 318° Northwest 120 138 1,300  Level Edmonton Center
Thu 02:48:53 AM 62.5000 -114.5667 335° Northwest 150 173 3,200 1,700 Climbing Edmonton Center
Thu 02:49:53 AM 62.5333 -114.6500 311° West 160 184 4,700 1,600 Climbing Edmonton Center
Thu 02:50:53 AM 62.5667 -114.7000 325° Northwest 160 184 6,400 1,800 Climbing Edmonton Center
Thu 02:51:53 AM 62.5833 -114.7833 294° West 150 173 8,300 1,850 Climbing Edmonton Center
Thu 02:52:53 AM 62.6333 -114.8333 335° Northwest 150 173 10,100 1,800 Climbing Edmonton Center
Thu 02:53:00 AM 62.6892 -114.9615 318° Northwest  Level FlightAware Approximate
Thu 02:53:53 AM 62.6667 -114.9167 311° West 150 173 11,900  Level Edmonton Center
Thu 02:54:53 AM 62.6833 -114.9667 306° West 140 161 13,500 1,500 Climbing Edmonton Center
Thu 02:55:53 AM 62.7000 -115.0500 294° West 140 161 14,900 1,450 Climbing Edmonton Center
Thu 02:56:53 AM 62.7333 -115.1000 326° Northwest 140 161 16,400 1,350 Climbing Edmonton Center
Thu 02:57:53 AM 62.7667 -115.1833 311° West 140 161 17,600 1,050 Climbing Edmonton Center
Thu 02:58:53 AM 62.8000 -115.2333 326° Northwest 150 173 18,500 1,100 Climbing Edmonton Center
Thu 02:59:53 AM 62.8333 -115.2833 326° Northwest 150 173 19,800 1,100 Climbing Edmonton Center
Thu 03:00:53 AM 62.8500 -115.3667 294° West 140 161 20,700 900 Climbing Edmonton Center
Thu 03:01:53 AM 62.8833 -115.4167 326° Northwest 150 173 21,600 650 Climbing Edmonton Center
Thu 03:02:53 AM 62.9167 -115.5000 311° West 150 173 22,000 200 Climbing Edmonton Center
Thu 03:03:53 AM 62.9500 -115.5833 311° West 180 207 22,000  Level Edmonton Center
Thu 03:04:53 AM 62.9833 -115.6667 311° West 200 230 22,000  Level Edmonton Center
Thu 03:05:53 AM 63.0333 -115.7667 318° Northwest 210 242 22,000  Level Edmonton Center
Thu 03:06:53 AM 63.0833 -115.8667 318° Northwest 200 230 22,000  Level Edmonton Center
Thu 03:07:53 AM 63.1000 -115.9500 294° West 200 230 22,000  Level Edmonton Center
Thu 03:08:53 AM 63.1500 -116.0333 323° Northwest 210 242 22,000  Level Edmonton Center
Thu 03:09:53 AM 63.2000 -116.1333 318° Northwest 200 230 22,000  Level Edmonton Center
Thu 03:10:53 AM 63.2167 -116.2167 294° West 200 230 22,000  Level Edmonton Center
Thu 03:11:53 AM 63.2667 -116.3167 318° Northwest 200 230 22,000  Level Edmonton Center
Thu 03:12:53 AM 63.3000 -116.4000 312° West 200 230 22,000  Level Edmonton Center
Thu 03:13:53 AM 63.3333 -116.5000 307° West 200 230 22,000  Level Edmonton Center
Thu 03:14:53 AM 63.3833 -116.5833 323° Northwest 200 230 22,000  Level Edmonton Center
Thu 03:15:53 AM 63.4167 -116.6833 307° West 200 230 22,000  Level Edmonton Center
Thu 03:16:53 AM 63.4667 -116.7833 318° Northwest 200 230 22,000  Level Edmonton Center
Thu 03:17:53 AM 63.5000 -116.8667 312° West 200 230 22,000  Level Edmonton Center
Thu 03:18:53 AM 63.5333 -116.9667 307° West 200 230 22,000  Level Edmonton Center
Thu 03:19:53 AM 63.5833 -117.0500 323° Northwest 200 230 22,000  Level Edmonton Center
Thu 03:20:53 AM 63.6333 -117.1500 318° Northwest 200 230 22,000  Level Edmonton Center
Thu 03:21:53 AM 63.6500 -117.2333 294° West 200 230 22,000  Level Edmonton Center
Thu 03:22:53 AM 63.7000 -117.3667 310° West 200 230 22,000  Level Edmonton Center
Thu 03:23:53 AM 63.7333 -117.4333 319° Northwest 200 230 22,000  Level Edmonton Center
Thu 03:24:53 AM 63.7667 -117.5667 300° West 200 230 22,000  Level Edmonton Center
Thu 03:25:53 AM 63.8000 -117.6500 312° West 200 230 22,000  Level Edmonton Center
Thu 03:26:53 AM 63.8500 -117.7500 319° Northwest 200 230 22,000  Level Edmonton Center
Thu 03:27:53 AM 63.8833 -117.8500 307° West 200 230 22,000  Level Edmonton Center
Thu 03:28:53 AM 63.9167 -117.9500 307° West 200 230 22,000  Level Edmonton Center
Thu 03:29:53 AM 63.9667 -118.0500 319° Northwest 200 230 22,000  Level Edmonton Center
Thu 03:30:53 AM 64.0000 -118.1333 312° West 200 230 22,000  Level Edmonton Center
Thu 03:31:53 AM 64.0333 -118.2333 307° West 200 230 22,000  Level Edmonton Center
Thu 03:32:53 AM 64.0667 -118.3333 307° West 200 230 22,000  Level Edmonton Center
Thu 03:33:53 AM 64.1000 -118.4167 313° West 200 230 22,000  Level Edmonton Center
Thu 03:34:53 AM 64.1500 -118.5167 319° Northwest 200 230 22,000  Level Edmonton Center
Thu 03:35:53 AM 64.1833 -118.6167 307° West 200 230 22,000  Level Edmonton Center
Thu 03:36:53 AM 64.2167 -118.7167 307° West 200 230 22,000  Level Edmonton Center
Thu 03:37:53 AM 64.2500 -118.8167 308° West 200 230 22,000  Level Edmonton Center
Thu 03:38:53 AM 64.3000 -118.9167 319° Northwest 200 230 22,000  Level Edmonton Center
Thu 03:39:53 AM 64.3167 -119.0167 291° West 200 230 22,000  Level Edmonton Center
Thu 03:40:53 AM 64.3667 -119.1167 319° Northwest 200 230 22,000  Level Edmonton Center
Thu 03:41:53 AM 64.4000 -119.2167 308° West 200 230 22,000  Level Edmonton Center
Thu 03:42:53 AM 64.4333 -119.3000 313° West 200 230 22,000  Level Edmonton Center
Thu 03:43:53 AM 64.4667 -119.4000 308° West 200 230 22,000  Level Edmonton Center
Thu 03:45:00 AM 64.5060 -119.5047 311° West  Level FlightAware Approximate
Thu 03:52:00 AM 64.7499 -120.1696 310° West  Level FlightAware Approximate
Thu 03:53:00 AM 64.7842 -120.2662 310° West  Level FlightAware Approximate
Thu 03:54:00 AM 64.8185 -120.3630 310° West  Level FlightAware Approximate
Thu 03:55:00 AM 64.8527 -120.4601 310° West  Level FlightAware Approximate
Thu 03:56:00 AM 64.8868 -120.5574 310° West  Level FlightAware Approximate
Thu 03:57:00 AM 64.9208 -120.6549 309° West  Level FlightAware Approximate
Thu 03:58:00 AM 64.9548 -120.7527 309° West  Level FlightAware Approximate
Thu 03:59:00 AM 64.9887 -120.8508 309° West  Level FlightAware Approximate
Thu 04:00:00 AM 65.0226 -120.9490 309° West  Level FlightAware Approximate
Thu 04:01:00 AM 65.0564 -121.0476 309° West  Level FlightAware Approximate
Thu 04:02:00 AM 65.0901 -121.1464 309° West  Level FlightAware Approximate
Thu 04:03:00 AM 65.1238 -121.2454 309° West  Level FlightAware Approximate
Thu 04:04:00 AM 65.1574 -121.3447 309° West  Level FlightAware Approximate
Thu 04:05:00 AM 65.1909 -121.4443 309° West  Level FlightAware Approximate
Thu 04:06:00 AM 65.2244 -121.5441 309° West  Level FlightAware Approximate
Thu 04:07:00 AM 65.2578 -121.6441 309° West  Level FlightAware Approximate
Thu 04:08:00 AM 65.2911 -121.7444 309° West  Level FlightAware Approximate
Thu 04:09:00 AM 65.3244 -121.8450 308° West  Level FlightAware Approximate
Thu 04:10:00 AM 65.3576 -121.9458 308° West  Level FlightAware Approximate
Thu 04:11:00 AM 65.3907 -122.0468 308° West  Level FlightAware Approximate
Thu 04:12:00 AM 65.4238 -122.1482 308° West  Level FlightAware Approximate
Thu 04:13:00 AM 65.4568 -122.2497 308° West  Level FlightAware Approximate
Thu 04:14:00 AM 65.4897 -122.3516 308° West  Level FlightAware Approximate
Thu 04:15:00 AM 65.5226 -122.4537 308° West  Level FlightAware Approximate
Thu 04:16:00 AM 65.5553 -122.5560 308° West  Level FlightAware Approximate
Thu 04:17:00 AM 65.5881 -122.6586 308° West  Level FlightAware Approximate
Thu 04:18:00 AM 65.6207 -122.7615 308° West  Level FlightAware Approximate
Thu 04:19:00 AM 65.6533 -122.8646 307° West  Level FlightAware Approximate
Thu 04:20:00 AM 65.6858 -122.9680 307° West  Level FlightAware Approximate
Thu 04:21:00 AM 65.7182 -123.0716 307° West  Level FlightAware Approximate
Thu 04:22:00 AM 65.7506 -123.1755 307° West  Level FlightAware Approximate
Thu 04:23:00 AM 65.7829 -123.2797 307° West  Level FlightAware Approximate
Thu 04:24:00 AM 65.8151 -123.3841 307° West  Level FlightAware Approximate
Thu 04:25:00 AM 65.8473 -123.4888 307° West  Level FlightAware Approximate
Thu 04:26:00 AM 65.8794 -123.5937 307° West  Level FlightAware Approximate
Thu 04:27:00 AM 65.9114 -123.6990 307° West  Level FlightAware Approximate
Thu 04:28:00 AM 65.9433 -123.8044 307° West  Level FlightAware Approximate
Thu 04:29:00 AM 65.9752 -123.9102 307° West  Level FlightAware Approximate
Thu 04:30:00 AM 66.0070 -124.0162 306° West  Level FlightAware Approximate
Thu 04:31:00 AM 66.0387 -124.1224 306° West  Level FlightAware Approximate
Thu 04:32:00 AM 66.0704 -124.2290 306° West  Level FlightAware Approximate
Thu 04:33:00 AM 66.1020 -124.3358 306° West  Level FlightAware Approximate
Thu 04:34:00 AM 66.1335 -124.4428 306° West  Level FlightAware Approximate
Thu 04:35:00 AM 66.1649 -124.5501 306° West  Level FlightAware Approximate
Thu 04:36:00 AM 66.1963 -124.6577 306° West  Level FlightAware Approximate
Thu 04:37:00 AM 66.2275 -124.7656 306° West  Level FlightAware Approximate
Thu 04:38:00 AM 66.2587 -124.8737 306° West  Level FlightAware Approximate
Thu 04:39:00 AM 66.2899 -124.9821 306° West  Level FlightAware Approximate
Thu 04:40:00 AM 66.3209 -125.0908 305° West  Level FlightAware Approximate
Thu 04:41:00 AM 66.3519 -125.1997 305° West  Level FlightAware Approximate
Thu 04:42:00 AM 66.3828 -125.3089 305° West  Level FlightAware Approximate
Thu 04:43:00 AM 66.4136 -125.4184 305° West  Level FlightAware Approximate
Thu 04:44:00 AM 66.4444 -125.5281 305° West  Level FlightAware Approximate
Thu 04:45:00 AM 66.4751 -125.6381 305° West  Level FlightAware Approximate
Thu 04:46:00 AM 66.5056 -125.7484 305° West  Level FlightAware Approximate
Thu 04:47:00 AM 66.5362 -125.8590 305° West  Level FlightAware Approximate
Thu 04:48:00 AM 66.5666 -125.9698 305° West  Level FlightAware Approximate
Thu 04:49:00 AM 66.5970 -126.0809 305° West  Level FlightAware Approximate
Thu 04:50:00 AM 66.6272 -126.1923 304° West  Level FlightAware Approximate
Thu 04:51:00 AM 66.6574 -126.3039 304° West  Level FlightAware Approximate
Thu 04:52:00 AM 66.6876 -126.4158 304° West  Level FlightAware Approximate
Thu 04:53:00 AM 66.7176 -126.5280 304° West  Level FlightAware Approximate
Thu 04:54:00 AM 66.7476 -126.6405 304° West  Level FlightAware Approximate
Thu 04:55:00 AM 66.7774 -126.7532 304° West  Level FlightAware Approximate
Thu 04:56:00 AM 66.8072 -126.8662 304° West  Level FlightAware Approximate
Thu 04:57:00 AM 66.8370 -126.9795 304° West  Level FlightAware Approximate
Thu 04:58:00 AM 66.8666 -127.0930 304° West  Level FlightAware Approximate
Thu 04:59:00 AM 66.8962 -127.2069 304° West  Level FlightAware Approximate
Thu 05:00:00 AM 66.9256 -127.3210 303° West  Level FlightAware Approximate
Thu 05:01:00 AM 66.9550 -127.4354 303° West  Level FlightAware Approximate
Thu 05:02:00 AM 66.9843 -127.5500 303° West  Level FlightAware Approximate
Thu 05:03:00 AM 67.0136 -127.6649 303° West  Level FlightAware Approximate
Thu 05:04:00 AM 67.0427 -127.7802 303° West  Level FlightAware Approximate
Thu 05:05:00 AM 67.0718 -127.8957 303° West  Level FlightAware Approximate
Thu 05:06:00 AM 67.1008 -128.0114 303° West  Level FlightAware Approximate
Thu 05:07:00 AM 67.1297 -128.1275 303° West  Level FlightAware Approximate
Thu 05:08:00 AM 67.1585 -128.2438 303° West  Level FlightAware Approximate
Thu 05:09:00 AM 67.1872 -128.3604 302° West  Level FlightAware Approximate
Thu 05:10:00 AM 67.2158 -128.4772 302° West  Level FlightAware Approximate
Thu 05:11:00 AM 67.2444 -128.5944 302° West  Level FlightAware Approximate
Thu 05:12:00 AM 67.2729 -128.7118 302° West  Level FlightAware Approximate
Thu 05:13:00 AM 67.3012 -128.8295 302° West  Level FlightAware Approximate
Thu 05:14:00 AM 67.3296 -128.9475 302° West  Level FlightAware Approximate
Thu 05:15:00 AM 67.3578 -129.0658 302° West  Level FlightAware Approximate
Thu 05:16:00 AM 67.3859 -129.1843 302° West  Level FlightAware Approximate
Thu 05:17:00 AM 67.4139 -129.3032 302° West  Level FlightAware Approximate
Thu 05:18:00 AM 67.4419 -129.4223 301° West  Level FlightAware Approximate
Thu 05:19:00 AM 67.4697 -129.5416 301° West  Level FlightAware Approximate
Thu 05:20:00 AM 67.4975 -129.6613 301° West  Level FlightAware Approximate
Thu 05:21:00 AM 67.5252 -129.7812 301° West  Level FlightAware Approximate
Thu 05:22:00 AM 67.5521 -129.9025 300° West  Level FlightAware Approximate
Thu 05:23:00 AM 67.5787 -130.0245 300° West  Level FlightAware Approximate
Thu 05:24:00 AM 67.6052 -130.1467 300° West  Level FlightAware Approximate
Thu 05:25:00 AM 67.6315 -130.2692 300° West  Level FlightAware Approximate
Thu 05:26:00 AM 67.6578 -130.3919 299° West  Level FlightAware Approximate
Thu 05:27:00 AM 67.6843 -130.5146 300° West  Level FlightAware Approximate
Thu 05:28:00 AM 67.7108 -130.6373 300° West  Level FlightAware Approximate
Thu 05:29:00 AM 67.7372 -130.7604 300° West  Level FlightAware Approximate
Thu 05:30:00 AM 67.7635 -130.8837 299° West  Level FlightAware Approximate
Thu 05:31:00 AM 67.7896 -131.0072 299° West  Level FlightAware Approximate
Thu 05:32:00 AM 67.8158 -131.1311 299° West  Level FlightAware Approximate
Thu 05:33:00 AM 67.8418 -131.2552 299° West  Level FlightAware Approximate
Thu 05:34:00 AM 67.8677 -131.3797 299° West  Level FlightAware Approximate
Thu 05:35:00 AM 67.8935 -131.5043 299° West  Level FlightAware Approximate
Thu 05:36:00 AM 67.9194 -131.6291 300° West  Level FlightAware Approximate
Thu 05:37:00 AM 67.9463 -131.7524 300° West  Level FlightAware Approximate
Thu 05:38:00 AM 67.9732 -131.8759 300° West  Level FlightAware Approximate
Thu 05:39:00 AM 68.0000 -131.9998 300° West  Level FlightAware Approximate
Thu 05:40:00 AM 68.0254 -132.1258 298° West  Level FlightAware Approximate
Thu 05:41:00 AM 68.0507 -132.2520 298° West  Level FlightAware Approximate
Thu 05:42:00 AM 68.0759 -132.3786 298° West  Level FlightAware Approximate
Thu 05:43:00 AM 68.1011 -132.5053 299° West  Level FlightAware Approximate
Thu 05:44:00 AM 68.1274 -132.6306 299° West  Level FlightAware Approximate
Thu 05:45:00 AM 68.1536 -132.7562 299° West  Level FlightAware Approximate
Thu 05:46:00 AM 68.1796 -132.8821 299° West  Level FlightAware Approximate

Login

Don't have an account? Register now (free) for customized features, flight alerts, and more!